sensor_id;sensor_type;location;lat;lon;timestamp;temperature;humidity
18281;DHT22;9266;51.132;17.062;2023-03-21T00:01:53;9.30;99.90
18281;DHT22;9266;51.132;17.062;2023-03-21T00:04:20;9.30;99.90
18281;DHT22;9266;51.132;17.062;2023-03-21T00:06:48;9.30;99.90
18281;DHT22;9266;51.132;17.062;2023-03-21T00:09:16;9.40;99.90
18281;DHT22;9266;51.132;17.062;2023-03-21T00:11:43;9.40;99.90
18281;DHT22;9266;51.132;17.062;2023-03-21T00:14:11;9.50;99.90
18281;DHT22;9266;51.132;17.062;2023-03-21T00:16:39;9.60;99.90
18281;DHT22;9266;51.132;17.062;2023-03-21T00:19:06;9.60;99.90
18281;DHT22;9266;51.132;17.062;2023-03-21T00:21:34;9.50;99.90
18281;DHT22;9266;51.132;17.062;2023-03-21T00:24:03;9.40;99.90
18281;DHT22;9266;51.132;17.062;2023-03-21T00:26:32;9.40;99.90
18281;DHT22;9266;51.132;17.062;2023-03-21T00:28:59;9.40;99.90
18281;DHT22;9266;51.132;17.062;2023-03-21T00:31:26;9.40;99.90
18281;DHT22;9266;51.132;17.062;2023-03-21T00:33:53;9.40;99.90
18281;DHT22;9266;51.132;17.062;2023-03-21T00:36:20;9.40;99.90
18281;DHT22;9266;51.132;17.062;2023-03-21T00:38:50;9.30;99.90
18281;DHT22;9266;51.132;17.062;2023-03-21T00:41:17;9.40;99.90
18281;DHT22;9266;51.132;17.062;2023-03-21T00:43:46;9.30;99.90
18281;DHT22;9266;51.132;17.062;2023-03-21T00:46:13;9.30;99.90
18281;DHT22;9266;51.132;17.062;2023-03-21T00:48:40;9.30;99.90
18281;DHT22;9266;51.132;17.062;2023-03-21T00:51:11;9.30;99.90
18281;DHT22;9266;51.132;17.062;2023-03-21T00:53:40;9.30;99.90
18281;DHT22;9266;51.132;17.062;2023-03-21T00:56:08;9.30;99.90
18281;DHT22;9266;51.132;17.062;2023-03-21T00:58:35;9.40;99.90
18281;DHT22;9266;51.132;17.062;2023-03-21T01:01:04;9.50;99.90
18281;DHT22;9266;51.132;17.062;2023-03-21T01:03:32;9.40;99.90
18281;DHT22;9266;51.132;17.062;2023-03-21T01:06:09;9.50;99.90
18281;DHT22;9266;51.132;17.062;2023-03-21T01:08:40;9.50;99.90
18281;DHT22;9266;51.132;17.062;2023-03-21T01:11:09;9.40;99.90
18281;DHT22;9266;51.132;17.062;2023-03-21T01:13:37;9.30;99.90
18281;DHT22;9266;51.132;17.062;2023-03-21T01:16:07;9.30;99.90
18281;DHT22;9266;51.132;17.062;2023-03-21T01:18:36;9.30;99.90
18281;DHT22;9266;51.132;17.062;2023-03-21T01:21:06;9.20;99.90
18281;DHT22;9266;51.132;17.062;2023-03-21T01:23:34;9.10;99.90
18281;DHT22;9266;51.132;17.062;2023-03-21T01:26:01;9.10;99.90
18281;DHT22;9266;51.132;17.062;2023-03-21T01:28:28;9.00;99.90
18281;DHT22;9266;51.132;17.062;2023-03-21T01:30:56;9.00;99.90
18281;DHT22;9266;51.132;17.062;2023-03-21T01:33:24;8.90;99.90
18281;DHT22;9266;51.132;17.062;2023-03-21T01:35:51;8.90;99.90
18281;DHT22;9266;51.132;17.062;2023-03-21T01:38:18;8.80;99.90
18281;DHT22;9266;51.132;17.062;2023-03-21T01:40:47;8.70;99.90
18281;DHT22;9266;51.132;17.062;2023-03-21T01:43:26;8.70;99.90
18281;DHT22;9266;51.132;17.062;2023-03-21T01:46:25;8.60;99.90
18281;DHT22;9266;51.132;17.062;2023-03-21T01:48:57;8.60;99.90
18281;DHT22;9266;51.132;17.062;2023-03-21T01:51:26;8.60;99.90
18281;DHT22;9266;51.132;17.062;2023-03-21T01:53:54;8.50;99.90
18281;DHT22;9266;51.132;17.062;2023-03-21T01:56:24;8.50;99.90
18281;DHT22;9266;51.132;17.062;2023-03-21T01:58:55;8.50;99.90
18281;DHT22;9266;51.132;17.062;2023-03-21T02:01:23;8.50;99.90
18281;DHT22;9266;51.132;17.062;2023-03-21T02:03:50;8.50;99.90
18281;DHT22;9266;51.132;17.062;2023-03-21T02:06:30;8.50;99.90
18281;DHT22;9266;51.132;17.062;2023-03-21T02:09:01;8.50;99.90
18281;DHT22;9266;51.132;17.062;2023-03-21T02:11:29;8.50;99.90
18281;DHT22;9266;51.132;17.062;2023-03-21T02:13:57;8.40;99.90
18281;DHT22;9266;51.132;17.062;2023-03-21T02:16:33;8.40;99.90
18281;DHT22;9266;51.132;17.062;2023-03-21T02:19:20;8.50;99.90
18281;DHT22;9266;51.132;17.062;2023-03-21T02:28:10;8.40;99.90
18281;DHT22;9266;51.132;17.062;2023-03-21T02:31:02;8.40;99.90
18281;DHT22;9266;51.132;17.062;2023-03-21T02:36:59;8.40;99.90
18281;DHT22;9266;51.132;17.062;2023-03-21T02:39:33;8.40;99.90
18281;DHT22;9266;51.132;17.062;2023-03-21T02:42:06;8.40;99.90
18281;DHT22;9266;51.132;17.062;2023-03-21T02:44:40;8.40;99.90
18281;DHT22;9266;51.132;17.062;2023-03-21T02:47:12;8.40;99.90
18281;DHT22;9266;51.132;17.062;2023-03-21T02:49:42;8.30;99.90
18281;DHT22;9266;51.132;17.062;2023-03-21T02:52:16;8.40;99.90
18281;DHT22;9266;51.132;17.062;2023-03-21T02:54:44;8.40;99.90
18281;DHT22;9266;51.132;17.062;2023-03-21T02:57:13;8.40;99.90
18281;DHT22;9266;51.132;17.062;2023-03-21T02:59:42;8.40;99.90
18281;DHT22;9266;51.132;17.062;2023-03-21T03:02:10;8.40;99.90
18281;DHT22;9266;51.132;17.062;2023-03-21T03:04:38;8.40;99.90
18281;DHT22;9266;51.132;17.062;2023-03-21T03:07:15;8.40;99.90
18281;DHT22;9266;51.132;17.062;2023-03-21T03:09:58;8.40;99.90
18281;DHT22;9266;51.132;17.062;2023-03-21T03:12:37;10.10;99.90
18281;DHT22;9266;51.132;17.062;2023-03-21T03:15:16;8.40;99.90
18281;DHT22;9266;51.132;17.062;2023-03-21T03:17:49;8.40;99.90
18281;DHT22;9266;51.132;17.062;2023-03-21T03:20:35;8.40;99.90
18281;DHT22;9266;51.132;17.062;2023-03-21T03:23:15;8.40;99.90
18281;DHT22;9266;51.132;17.062;2023-03-21T03:25:49;8.50;99.90
18281;DHT22;9266;51.132;17.062;2023-03-21T03:28:23;8.40;99.90
18281;DHT22;9266;51.132;17.062;2023-03-21T03:30:51;8.50;99.90
18281;DHT22;9266;51.132;17.062;2023-03-21T03:33:20;8.50;99.90
18281;DHT22;9266;51.132;17.062;2023-03-21T03:35:49;8.50;99.90
18281;DHT22;9266;51.132;17.062;2023-03-21T03:38:20;8.50;99.90
18281;DHT22;9266;51.132;17.062;2023-03-21T03:40:52;8.40;99.90
18281;DHT22;9266;51.132;17.062;2023-03-21T03:43:23;8.40;99.90
18281;DHT22;9266;51.132;17.062;2023-03-21T03:45:56;8.50;99.90
18281;DHT22;9266;51.132;17.062;2023-03-21T03:48:25;8.50;99.90
18281;DHT22;9266;51.132;17.062;2023-03-21T03:50:56;8.40;99.90
18281;DHT22;9266;51.132;17.062;2023-03-21T03:53:33;8.40;99.90
18281;DHT22;9266;51.132;17.062;2023-03-21T03:56:04;8.40;99.90
18281;DHT22;9266;51.132;17.062;2023-03-21T03:58:34;8.40;99.90
18281;DHT22;9266;51.132;17.062;2023-03-21T04:01:04;8.50;99.90
18281;DHT22;9266;51.132;17.062;2023-03-21T04:03:32;8.50;99.90
18281;DHT22;9266;51.132;17.062;2023-03-21T04:05:59;8.40;99.90
18281;DHT22;9266;51.132;17.062;2023-03-21T04:08:28;8.50;99.90
18281;DHT22;9266;51.132;17.062;2023-03-21T04:10:55;8.40;99.90
18281;DHT22;9266;51.132;17.062;2023-03-21T04:13:23;8.40;99.90
18281;DHT22;9266;51.132;17.062;2023-03-21T04:15:50;8.40;99.90
18281;DHT22;9266;51.132;17.062;2023-03-21T04:18:17;8.50;99.90
18281;DHT22;9266;51.132;17.062;2023-03-21T04:20:44;8.50;99.90
18281;DHT22;9266;51.132;17.062;2023-03-21T04:23:12;8.40;99.90
18281;DHT22;9266;51.132;17.062;2023-03-21T04:25:41;8.40;99.90
18281;DHT22;9266;51.132;17.062;2023-03-21T04:28:08;8.50;99.90
18281;DHT22;9266;51.132;17.062;2023-03-21T04:30:35;8.40;99.90
18281;DHT22;9266;51.132;17.062;2023-03-21T04:33:02;8.40;99.90
18281;DHT22;9266;51.132;17.062;2023-03-21T04:35:29;8.40;99.90
18281;DHT22;9266;51.132;17.062;2023-03-21T04:37:56;8.40;99.90
18281;DHT22;9266;51.132;17.062;2023-03-21T04:40:23;8.40;99.90
18281;DHT22;9266;51.132;17.062;2023-03-21T04:42:52;8.40;99.90
18281;DHT22;9266;51.132;17.062;2023-03-21T04:45:19;8.40;99.90
18281;DHT22;9266;51.132;17.062;2023-03-21T04:47:46;8.30;99.90
18281;DHT22;9266;51.132;17.062;2023-03-21T04:50:13;8.30;99.90
18281;DHT22;9266;51.132;17.062;2023-03-21T04:52:41;8.30;99.90
18281;DHT22;9266;51.132;17.062;2023-03-21T04:55:08;8.40;99.90
18281;DHT22;9266;51.132;17.062;2023-03-21T04:57:36;8.30;99.90
18281;DHT22;9266;51.132;17.062;2023-03-21T05:00:07;8.30;99.90
18281;DHT22;9266;51.132;17.062;2023-03-21T05:02:39;8.30;99.90
18281;DHT22;9266;51.132;17.062;2023-03-21T05:05:06;8.30;99.90
18281;DHT22;9266;51.132;17.062;2023-03-21T05:07:36;8.30;99.90
18281;DHT22;9266;51.132;17.062;2023-03-21T05:10:04;8.30;99.90
18281;DHT22;9266;51.132;17.062;2023-03-21T05:12:32;8.30;99.90
18281;DHT22;9266;51.132;17.062;2023-03-21T05:14:59;8.30;99.90
18281;DHT22;9266;51.132;17.062;2023-03-21T05:17:27;8.30;99.90
18281;DHT22;9266;51.132;17.062;2023-03-21T05:19:55;8.30;99.90
18281;DHT22;9266;51.132;17.062;2023-03-21T05:22:23;8.30;99.90
18281;DHT22;9266;51.132;17.062;2023-03-21T05:24:51;8.30;99.90
18281;DHT22;9266;51.132;17.062;2023-03-21T05:27:20;8.30;99.90
18281;DHT22;9266;51.132;17.062;2023-03-21T05:30:01;8.30;99.90
18281;DHT22;9266;51.132;17.062;2023-03-21T05:32:30;8.30;99.90
18281;DHT22;9266;51.132;17.062;2023-03-21T05:34:57;8.30;99.90
18281;DHT22;9266;51.132;17.062;2023-03-21T05:37:24;8.30;99.90
18281;DHT22;9266;51.132;17.062;2023-03-21T05:39:51;8.30;99.90
18281;DHT22;9266;51.132;17.062;2023-03-21T05:42:18;8.30;99.90
18281;DHT22;9266;51.132;17.062;2023-03-21T05:44:45;8.30;99.90
18281;DHT22;9266;51.132;17.062;2023-03-21T05:47:13;8.40;99.90
18281;DHT22;9266;51.132;17.062;2023-03-21T05:49:42;8.40;99.90
18281;DHT22;9266;51.132;17.062;2023-03-21T05:52:09;8.40;99.90
18281;DHT22;9266;51.132;17.062;2023-03-21T05:54:36;8.50;99.90
18281;DHT22;9266;51.132;17.062;2023-03-21T05:57:04;8.60;99.90
18281;DHT22;9266;51.132;17.062;2023-03-21T05:59:31;8.60;99.90
18281;DHT22;9266;51.132;17.062;2023-03-21T06:01:58;8.50;99.90
18281;DHT22;9266;51.132;17.062;2023-03-21T06:04:25;8.50;99.90
18281;DHT22;9266;51.132;17.062;2023-03-21T06:06:54;8.60;99.90
18281;DHT22;9266;51.132;17.062;2023-03-21T06:09:22;8.60;99.90
18281;DHT22;9266;51.132;17.062;2023-03-21T06:11:50;8.60;99.90
18281;DHT22;9266;51.132;17.062;2023-03-21T06:14:18;8.60;99.90
18281;DHT22;9266;51.132;17.062;2023-03-21T06:16:46;8.60;99.90
18281;DHT22;9266;51.132;17.062;2023-03-21T06:19:13;8.70;99.90
18281;DHT22;9266;51.132;17.062;2023-03-21T06:21:40;8.70;99.90
18281;DHT22;9266;51.132;17.062;2023-03-21T06:24:09;8.60;99.90
18281;DHT22;9266;51.132;17.062;2023-03-21T06:26:36;8.70;99.90
18281;DHT22;9266;51.132;17.062;2023-03-21T06:29:03;8.70;99.90
18281;DHT22;9266;51.132;17.062;2023-03-21T06:31:30;8.70;99.90
18281;DHT22;9266;51.132;17.062;2023-03-21T06:33:58;8.60;99.90
18281;DHT22;9266;51.132;17.062;2023-03-21T06:36:25;8.60;99.90
18281;DHT22;9266;51.132;17.062;2023-03-21T06:38:52;8.60;99.90
18281;DHT22;9266;51.132;17.062;2023-03-21T06:41:21;8.70;99.90
18281;DHT22;9266;51.132;17.062;2023-03-21T06:43:48;8.70;99.90
18281;DHT22;9266;51.132;17.062;2023-03-21T06:46:15;8.70;99.90
18281;DHT22;9266;51.132;17.062;2023-03-21T06:48:42;8.70;99.90
18281;DHT22;9266;51.132;17.062;2023-03-21T06:51:11;8.80;99.90
18281;DHT22;9266;51.132;17.062;2023-03-21T06:53:38;8.80;99.90
18281;DHT22;9266;51.132;17.062;2023-03-21T06:56:07;8.80;99.90
18281;DHT22;9266;51.132;17.062;2023-03-21T06:58:35;8.90;99.90
18281;DHT22;9266;51.132;17.062;2023-03-21T07:01:03;9.00;99.90
18281;DHT22;9266;51.132;17.062;2023-03-21T07:03:31;9.00;99.90
18281;DHT22;9266;51.132;17.062;2023-03-21T07:06:03;9.00;99.90
18281;DHT22;9266;51.132;17.062;2023-03-21T07:08:32;8.90;99.90
18281;DHT22;9266;51.132;17.062;2023-03-21T07:10:59;9.00;99.90
18281;DHT22;9266;51.132;17.062;2023-03-21T07:13:26;8.90;99.90
18281;DHT22;9266;51.132;17.062;2023-03-21T07:15:55;9.00;99.90
18281;DHT22;9266;51.132;17.062;2023-03-21T07:18:22;9.00;99.90
18281;DHT22;9266;51.132;17.062;2023-03-21T07:20:50;9.10;99.90
18281;DHT22;9266;51.132;17.062;2023-03-21T07:23:17;9.10;99.90
18281;DHT22;9266;51.132;17.062;2023-03-21T07:25:46;9.10;99.90
18281;DHT22;9266;51.132;17.062;2023-03-21T07:28:14;9.10;99.90
18281;DHT22;9266;51.132;17.062;2023-03-21T07:30:41;9.20;99.90
18281;DHT22;9266;51.132;17.062;2023-03-21T07:33:10;9.30;99.90
18281;DHT22;9266;51.132;17.062;2023-03-21T07:35:37;9.30;99.90
18281;DHT22;9266;51.132;17.062;2023-03-21T07:38:05;9.40;99.90
18281;DHT22;9266;51.132;17.062;2023-03-21T07:40:32;9.40;99.90
18281;DHT22;9266;51.132;17.062;2023-03-21T07:42:59;9.50;99.90
18281;DHT22;9266;51.132;17.062;2023-03-21T07:45:26;9.50;99.90
18281;DHT22;9266;51.132;17.062;2023-03-21T07:47:53;9.40;99.90
18281;DHT22;9266;51.132;17.062;2023-03-21T07:50:21;9.40;99.90
18281;DHT22;9266;51.132;17.062;2023-03-21T07:52:48;9.50;99.90
18281;DHT22;9266;51.132;17.062;2023-03-21T07:55:16;9.60;99.90
18281;DHT22;9266;51.132;17.062;2023-03-21T07:57:43;9.70;99.90
18281;DHT22;9266;51.132;17.062;2023-03-21T08:00:12;9.80;99.90
18281;DHT22;9266;51.132;17.062;2023-03-21T08:02:48;10.10;99.90
18281;DHT22;9266;51.132;17.062;2023-03-21T08:05:21;10.20;99.90
18281;DHT22;9266;51.132;17.062;2023-03-21T08:07:48;10.50;99.90
18281;DHT22;9266;51.132;17.062;2023-03-21T08:10:17;10.70;99.90
18281;DHT22;9266;51.132;17.062;2023-03-21T08:12:44;10.90;99.90
18281;DHT22;9266;51.132;17.062;2023-03-21T08:15:12;10.60;99.90
18281;DHT22;9266;51.132;17.062;2023-03-21T08:17:39;10.50;99.90
18281;DHT22;9266;51.132;17.062;2023-03-21T08:20:09;10.80;99.90
18281;DHT22;9266;51.132;17.062;2023-03-21T08:22:38;10.60;99.90
18281;DHT22;9266;51.132;17.062;2023-03-21T08:25:07;10.20;99.90
18281;DHT22;9266;51.132;17.062;2023-03-21T08:27:37;9.90;99.90
18281;DHT22;9266;51.132;17.062;2023-03-21T08:30:06;9.80;99.90
18281;DHT22;9266;51.132;17.062;2023-03-21T08:32:34;9.70;99.90
18281;DHT22;9266;51.132;17.062;2023-03-21T08:35:04;9.50;99.90
18281;DHT22;9266;51.132;17.062;2023-03-21T08:37:35;9.40;99.90
18281;DHT22;9266;51.132;17.062;2023-03-21T08:40:04;9.60;99.90
18281;DHT22;9266;51.132;17.062;2023-03-21T08:42:35;9.60;99.90
18281;DHT22;9266;51.132;17.062;2023-03-21T08:45:03;9.60;99.90
18281;DHT22;9266;51.132;17.062;2023-03-21T08:47:30;9.40;99.90
18281;DHT22;9266;51.132;17.062;2023-03-21T08:49:58;9.20;99.90
18281;DHT22;9266;51.132;17.062;2023-03-21T08:52:25;9.00;99.90
18281;DHT22;9266;51.132;17.062;2023-03-21T08:54:52;8.80;99.90
18281;DHT22;9266;51.132;17.062;2023-03-21T08:57:21;8.70;99.90
18281;DHT22;9266;51.132;17.062;2023-03-21T08:59:48;9.60;99.90
18281;DHT22;9266;51.132;17.062;2023-03-21T09:02:16;8.80;99.90
18281;DHT22;9266;51.132;17.062;2023-03-21T09:04:43;9.00;99.90
18281;DHT22;9266;51.132;17.062;2023-03-21T09:07:10;9.30;99.90
18281;DHT22;9266;51.132;17.062;2023-03-21T09:09:40;9.50;99.90
18281;DHT22;9266;51.132;17.062;2023-03-21T09:12:07;9.80;99.90
18281;DHT22;9266;51.132;17.062;2023-03-21T09:14:36;10.10;99.90
18281;DHT22;9266;51.132;17.062;2023-03-21T09:17:03;10.30;99.90
18281;DHT22;9266;51.132;17.062;2023-03-21T09:19:32;10.60;99.90
18281;DHT22;9266;51.132;17.062;2023-03-21T09:21:59;10.40;99.90
18281;DHT22;9266;51.132;17.062;2023-03-21T09:24:29;10.50;99.90
18281;DHT22;9266;51.132;17.062;2023-03-21T09:26:56;10.50;99.90
18281;DHT22;9266;51.132;17.062;2023-03-21T09:29:24;10.90;99.90
18281;DHT22;9266;51.132;17.062;2023-03-21T09:31:53;11.30;99.90
18281;DHT22;9266;51.132;17.062;2023-03-21T09:34:20;11.60;99.90
18281;DHT22;9266;51.132;17.062;2023-03-21T09:36:47;12.10;99.90
18281;DHT22;9266;51.132;17.062;2023-03-21T09:39:16;12.50;99.90
18281;DHT22;9266;51.132;17.062;2023-03-21T09:41:56;12.60;1.00
18281;DHT22;9266;51.132;17.062;2023-03-21T09:44:44;12.70;1.00
18281;DHT22;9266;51.132;17.062;2023-03-21T09:47:19;12.90;1.00
18281;DHT22;9266;51.132;17.062;2023-03-21T09:49:48;12.80;99.90
18281;DHT22;9266;51.132;17.062;2023-03-21T09:52:20;13.20;74.20
18281;DHT22;9266;51.132;17.062;2023-03-21T09:54:48;13.30;1.00
18281;DHT22;9266;51.132;17.062;2023-03-21T09:57:25;13.20;99.90
18281;DHT22;9266;51.132;17.062;2023-03-21T09:59:53;13.40;1.00
18281;DHT22;9266;51.132;17.062;2023-03-21T10:02:34;13.30;1.00
18281;DHT22;9266;51.132;17.062;2023-03-21T10:05:09;12.60;1.00
18281;DHT22;9266;51.132;17.062;2023-03-21T10:07:39;12.80;1.00
18281;DHT22;9266;51.132;17.062;2023-03-21T10:10:15;13.10;1.00
18281;DHT22;9266;51.132;17.062;2023-03-21T10:12:45;13.40;1.00
18281;DHT22;9266;51.132;17.062;2023-03-21T10:15:17;13.50;1.00
18281;DHT22;9266;51.132;17.062;2023-03-21T10:17:52;13.80;99.90
18281;DHT22;9266;51.132;17.062;2023-03-21T10:20:22;13.80;99.90
18281;DHT22;9266;51.132;17.062;2023-03-21T10:22:51;13.50;1.00
18281;DHT22;9266;51.132;17.062;2023-03-21T10:25:20;13.50;1.00
18281;DHT22;9266;51.132;17.062;2023-03-21T10:27:47;13.80;1.00
18281;DHT22;9266;51.132;17.062;2023-03-21T10:33:10;14.10;1.00
18281;DHT22;9266;51.132;17.062;2023-03-21T10:35:42;13.90;99.90
18281;DHT22;9266;51.132;17.062;2023-03-21T10:38:15;13.70;99.90
18281;DHT22;9266;51.132;17.062;2023-03-21T10:40:43;14.10;1.00
18281;DHT22;9266;51.132;17.062;2023-03-21T10:43:29;14.40;99.90
18281;DHT22;9266;51.132;17.062;2023-03-21T10:46:05;14.70;1.00
18281;DHT22;9266;51.132;17.062;2023-03-21T10:48:37;15.00;1.00
18281;DHT22;9266;51.132;17.062;2023-03-21T10:51:07;14.60;1.00
18281;DHT22;9266;51.132;17.062;2023-03-21T10:53:38;14.60;1.00
18281;DHT22;9266;51.132;17.062;2023-03-21T10:56:08;14.40;1.00
18281;DHT22;9266;51.132;17.062;2023-03-21T10:58:40;14.40;1.00
18281;DHT22;9266;51.132;17.062;2023-03-21T11:01:12;14.50;1.00
18281;DHT22;9266;51.132;17.062;2023-03-21T11:03:44;14.20;1.00
18281;DHT22;9266;51.132;17.062;2023-03-21T11:06:21;14.30;99.90
18281;DHT22;9266;51.132;17.062;2023-03-21T11:08:53;14.60;99.90
18281;DHT22;9266;51.132;17.062;2023-03-21T11:11:24;14.50;99.90
18281;DHT22;9266;51.132;17.062;2023-03-21T11:13:58;14.50;99.90
18281;DHT22;9266;51.132;17.062;2023-03-21T11:16:30;14.60;99.90
18281;DHT22;9266;51.132;17.062;2023-03-21T11:19:02;14.50;99.90
18281;DHT22;9266;51.132;17.062;2023-03-21T11:21:35;14.60;99.90
18281;DHT22;9266;51.132;17.062;2023-03-21T11:24:03;14.50;99.90
18281;DHT22;9266;51.132;17.062;2023-03-21T11:26:33;14.20;99.90
18281;DHT22;9266;51.132;17.062;2023-03-21T11:29:10;14.00;99.90
18281;DHT22;9266;51.132;17.062;2023-03-21T11:31:40;13.80;99.90
18281;DHT22;9266;51.132;17.062;2023-03-21T11:34:12;13.50;99.90
18281;DHT22;9266;51.132;17.062;2023-03-21T11:36:50;13.50;99.90
18281;DHT22;9266;51.132;17.062;2023-03-21T11:39:29;13.30;99.90
18281;DHT22;9266;51.132;17.062;2023-03-21T11:41:56;13.10;99.90
18281;DHT22;9266;51.132;17.062;2023-03-21T11:44:27;13.10;99.90
18281;DHT22;9266;51.132;17.062;2023-03-21T11:46:55;13.20;99.90
18281;DHT22;9266;51.132;17.062;2023-03-21T11:49:24;13.20;99.90
18281;DHT22;9266;51.132;17.062;2023-03-21T11:54:52;13.10;99.90
18281;DHT22;9266;51.132;17.062;2023-03-21T11:57:25;13.30;99.90
18281;DHT22;9266;51.132;17.062;2023-03-21T11:59:58;13.50;99.90
18281;DHT22;9266;51.132;17.062;2023-03-21T12:02:58;13.40;99.90
18281;DHT22;9266;51.132;17.062;2023-03-21T12:05:34;13.50;99.90
18281;DHT22;9266;51.132;17.062;2023-03-21T12:08:07;13.50;99.90
18281;DHT22;9266;51.132;17.062;2023-03-21T12:10:42;13.70;99.90
18281;DHT22;9266;51.132;17.062;2023-03-21T12:13:31;13.50;99.90
18281;DHT22;9266;51.132;17.062;2023-03-21T12:16:09;13.50;99.90
18281;DHT22;9266;51.132;17.062;2023-03-21T12:21:33;14.00;99.90
18281;DHT22;9266;51.132;17.062;2023-03-21T12:24:06;14.10;99.90
18281;DHT22;9266;51.132;17.062;2023-03-21T12:26:42;14.20;99.90
18281;DHT22;9266;51.132;17.062;2023-03-21T12:29:37;14.20;99.90
18281;DHT22;9266;51.132;17.062;2023-03-21T12:32:14;14.20;99.90
18281;DHT22;9266;51.132;17.062;2023-03-21T12:37:46;14.10;99.90
18281;DHT22;9266;51.132;17.062;2023-03-21T12:40:32;14.40;99.90
18281;DHT22;9266;51.132;17.062;2023-03-21T12:43:22;14.00;99.90
18281;DHT22;9266;51.132;17.062;2023-03-21T12:45:55;13.70;99.90
18281;DHT22;9266;51.132;17.062;2023-03-21T12:48:30;14.10;99.90
18281;DHT22;9266;51.132;17.062;2023-03-21T12:51:00;14.40;77.40
18281;DHT22;9266;51.132;17.062;2023-03-21T12:53:37;14.50;49.10
18281;DHT22;9266;51.132;17.062;2023-03-21T12:56:10;14.70;35.00
18281;DHT22;9266;51.132;17.062;2023-03-21T12:58:44;14.60;1.00
18281;DHT22;9266;51.132;17.062;2023-03-21T13:01:14;14.70;1.00
18281;DHT22;9266;51.132;17.062;2023-03-21T13:03:47;14.80;1.00
18281;DHT22;9266;51.132;17.062;2023-03-21T13:06:17;14.70;1.00
18281;DHT22;9266;51.132;17.062;2023-03-21T13:08:50;14.70;1.00
18281;DHT22;9266;51.132;17.062;2023-03-21T13:11:22;14.70;1.00
18281;DHT22;9266;51.132;17.062;2023-03-21T13:13:55;14.70;1.00
18281;DHT22;9266;51.132;17.062;2023-03-21T13:16:26;14.00;1.00
18281;DHT22;9266;51.132;17.062;2023-03-21T13:19:02;14.00;1.00
18281;DHT22;9266;51.132;17.062;2023-03-21T13:21:40;14.30;1.00
18281;DHT22;9266;51.132;17.062;2023-03-21T13:24:25;14.40;1.00
18281;DHT22;9266;51.132;17.062;2023-03-21T13:26:58;14.50;1.00
18281;DHT22;9266;51.132;17.062;2023-03-21T13:29:29;13.70;1.00
18281;DHT22;9266;51.132;17.062;2023-03-21T13:32:07;14.50;1.00
18281;DHT22;9266;51.132;17.062;2023-03-21T13:34:37;14.50;1.00
18281;DHT22;9266;51.132;17.062;2023-03-21T13:37:14;13.80;1.00
18281;DHT22;9266;51.132;17.062;2023-03-21T13:39:45;13.60;1.00
18281;DHT22;9266;51.132;17.062;2023-03-21T13:42:21;12.30;1.00
18281;DHT22;9266;51.132;17.062;2023-03-21T13:44:52;12.80;1.00
18281;DHT22;9266;51.132;17.062;2023-03-21T13:47:38;13.00;20.20
18281;DHT22;9266;51.132;17.062;2023-03-21T13:50:24;13.30;1.00
18281;DHT22;9266;51.132;17.062;2023-03-21T13:56:20;13.90;1.00
18281;DHT22;9266;51.132;17.062;2023-03-21T13:58:54;13.70;1.00
18281;DHT22;9266;51.132;17.062;2023-03-21T14:01:31;13.30;1.00
18281;DHT22;9266;51.132;17.062;2023-03-21T14:04:14;13.70;1.00
18281;DHT22;9266;51.132;17.062;2023-03-21T14:06:48;13.80;1.00
18281;DHT22;9266;51.132;17.062;2023-03-21T14:09:24;14.00;1.00
18281;DHT22;9266;51.132;17.062;2023-03-21T14:11:55;14.00;1.00
18281;DHT22;9266;51.132;17.062;2023-03-21T14:14:25;13.50;1.00
18281;DHT22;9266;51.132;17.062;2023-03-21T14:16:54;13.80;1.00
18281;DHT22;9266;51.132;17.062;2023-03-21T14:19:28;14.00;1.00
18281;DHT22;9266;51.132;17.062;2023-03-21T14:21:55;14.00;1.00
18281;DHT22;9266;51.132;17.062;2023-03-21T14:24:22;14.10;1.00
18281;DHT22;9266;51.132;17.062;2023-03-21T14:26:51;14.00;1.00
18281;DHT22;9266;51.132;17.062;2023-03-21T14:29:24;14.10;1.00
18281;DHT22;9266;51.132;17.062;2023-03-21T14:31:52;14.10;1.00
18281;DHT22;9266;51.132;17.062;2023-03-21T14:34:21;14.00;1.00
18281;DHT22;9266;51.132;17.062;2023-03-21T14:36:49;13.90;1.00
18281;DHT22;9266;51.132;17.062;2023-03-21T14:39:19;13.70;1.00
18281;DHT22;9266;51.132;17.062;2023-03-21T14:41:51;13.80;1.00
18281;DHT22;9266;51.132;17.062;2023-03-21T14:44:22;13.60;1.00
18281;DHT22;9266;51.132;17.062;2023-03-21T14:46:59;13.50;1.00
18281;DHT22;9266;51.132;17.062;2023-03-21T14:49:28;13.60;1.00
18281;DHT22;9266;51.132;17.062;2023-03-21T14:51:58;13.20;1.00
18281;DHT22;9266;51.132;17.062;2023-03-21T14:54:25;12.90;1.00
18281;DHT22;9266;51.132;17.062;2023-03-21T14:56:57;13.00;1.00
18281;DHT22;9266;51.132;17.062;2023-03-21T14:59:31;13.10;1.00
18281;DHT22;9266;51.132;17.062;2023-03-21T15:02:02;13.30;3.00
18281;DHT22;9266;51.132;17.062;2023-03-21T15:04:31;13.30;1.00
18281;DHT22;9266;51.132;17.062;2023-03-21T15:07:00;13.40;1.00
18281;DHT22;9266;51.132;17.062;2023-03-21T15:09:31;13.20;1.00
18281;DHT22;9266;51.132;17.062;2023-03-21T15:11:59;13.40;1.00
18281;DHT22;9266;51.132;17.062;2023-03-21T15:14:33;13.50;1.00
18281;DHT22;9266;51.132;17.062;2023-03-21T15:17:02;13.30;1.00
18281;DHT22;9266;51.132;17.062;2023-03-21T15:19:33;13.10;1.00
18281;DHT22;9266;51.132;17.062;2023-03-21T15:22:08;13.10;1.00
18281;DHT22;9266;51.132;17.062;2023-03-21T15:24:39;13.10;1.00
18281;DHT22;9266;51.132;17.062;2023-03-21T15:27:12;13.00;1.00
18281;DHT22;9266;51.132;17.062;2023-03-21T15:29:42;13.10;1.00
18281;DHT22;9266;51.132;17.062;2023-03-21T15:32:14;12.90;1.00
18281;DHT22;9266;51.132;17.062;2023-03-21T15:34:42;13.00;1.00
18281;DHT22;9266;51.132;17.062;2023-03-21T15:37:15;13.00;1.00
18281;DHT22;9266;51.132;17.062;2023-03-21T15:39:43;13.00;1.00
18281;DHT22;9266;51.132;17.062;2023-03-21T15:42:36;12.90;1.00
18281;DHT22;9266;51.132;17.062;2023-03-21T15:45:15;12.70;1.00
18281;DHT22;9266;51.132;17.062;2023-03-21T15:47:54;12.70;1.00
18281;DHT22;9266;51.132;17.062;2023-03-21T15:50:33;12.60;4.50
18281;DHT22;9266;51.132;17.062;2023-03-21T15:53:02;12.60;15.70
18281;DHT22;9266;51.132;17.062;2023-03-21T15:55:37;12.70;23.40
18281;DHT22;9266;51.132;17.062;2023-03-21T15:58:09;12.60;24.90
18281;DHT22;9266;51.132;17.062;2023-03-21T16:00:47;12.60;7.10
18281;DHT22;9266;51.132;17.062;2023-03-21T16:03:19;12.60;6.50
18281;DHT22;9266;51.132;17.062;2023-03-21T16:06:04;12.50;1.00
18281;DHT22;9266;51.132;17.062;2023-03-21T16:08:34;12.40;18.10
18281;DHT22;9266;51.132;17.062;2023-03-21T16:11:07;12.30;56.30
18281;DHT22;9266;51.132;17.062;2023-03-21T16:13:35;12.30;99.90
18281;DHT22;9266;51.132;17.062;2023-03-21T16:16:04;12.20;93.70
18281;DHT22;9266;51.132;17.062;2023-03-21T16:18:31;12.20;99.90
18281;DHT22;9266;51.132;17.062;2023-03-21T16:20:58;12.20;99.90
18281;DHT22;9266;51.132;17.062;2023-03-21T16:23:25;12.20;99.90
18281;DHT22;9266;51.132;17.062;2023-03-21T16:25:52;12.20;99.90
18281;DHT22;9266;51.132;17.062;2023-03-21T16:28:23;12.00;99.90
18281;DHT22;9266;51.132;17.062;2023-03-21T16:30:51;11.90;99.90